sensor_id;sensor_type;location;lat;lon;timestamp;P1;durP1;ratioP1;P2;durP2;ratioP2
44646;SDS011;56315;-33.902;151.160;2023-05-28T00:01:04;1.70;;;0.60;;
44646;SDS011;56315;-33.902;151.160;2023-05-28T00:03:31;1.17;;;0.70;;
44646;SDS011;56315;-33.902;151.160;2023-05-28T00:06:01;1.52;;;0.65;;
44646;SDS011;56315;-33.902;151.160;2023-05-28T00:08:29;0.55;;;0.50;;
44646;SDS011;56315;-33.902;151.160;2023-05-28T00:10:56;0.90;;;0.40;;
44646;SDS011;56315;-33.902;151.160;2023-05-28T00:13:26;2.30;;;0.73;;
44646;SDS011;56315;-33.902;151.160;2023-05-28T00:15:54;1.67;;;0.70;;
44646;SDS011;56315;-33.902;151.160;2023-05-28T00:18:21;1.70;;;0.90;;
44646;SDS011;56315;-33.902;151.160;2023-05-28T00:20:49;0.93;;;0.50;;
44646;SDS011;56315;-33.902;151.160;2023-05-28T00:23:17;1.52;;;0.77;;
44646;SDS011;56315;-33.902;151.160;2023-05-28T00:25:44;1.30;;;0.50;;
44646;SDS011;56315;-33.902;151.160;2023-05-28T00:28:11;2.03;;;0.88;;
44646;SDS011;56315;-33.902;151.160;2023-05-28T00:30:38;2.28;;;0.47;;
44646;SDS011;56315;-33.902;151.160;2023-05-28T00:33:06;4.65;;;0.80;;
44646;SDS011;56315;-33.902;151.160;2023-05-28T00:35:33;3.95;;;2.25;;
44646;SDS011;56315;-33.902;151.160;2023-05-28T00:38:00;1.30;;;0.68;;
44646;SDS011;56315;-33.902;151.160;2023-05-28T00:40:28;1.80;;;0.45;;
44646;SDS011;56315;-33.902;151.160;2023-05-28T00:42:55;2.30;;;0.60;;
44646;SDS011;56315;-33.902;151.160;2023-05-28T00:45:22;1.90;;;0.40;;
44646;SDS011;56315;-33.902;151.160;2023-05-28T00:47:49;1.58;;;0.60;;
44646;SDS011;56315;-33.902;151.160;2023-05-28T00:50:17;1.63;;;0.52;;
44646;SDS011;56315;-33.902;151.160;2023-05-28T00:52:46;1.52;;;0.60;;
44646;SDS011;56315;-33.902;151.160;2023-05-28T00:55:15;2.28;;;0.95;;
44646;SDS011;56315;-33.902;151.160;2023-05-28T00:57:43;1.17;;;0.60;;
44646;SDS011;56315;-33.902;151.160;2023-05-28T01:00:13;6.72;;;3.05;;
44646;SDS011;56315;-33.902;151.160;2023-05-28T01:02:42;5.90;;;3.22;;
44646;SDS011;56315;-33.902;151.160;2023-05-28T01:05:09;3.92;;;1.85;;
44646;SDS011;56315;-33.902;151.160;2023-05-28T01:07:36;1.83;;;0.90;;
44646;SDS011;56315;-33.902;151.160;2023-05-28T01:10:04;7.05;;;1.80;;
44646;SDS011;56315;-33.902;151.160;2023-05-28T01:12:32;1.52;;;0.68;;
44646;SDS011;56315;-33.902;151.160;2023-05-28T01:15:01;1.27;;;0.60;;
44646;SDS011;56315;-33.902;151.160;2023-05-28T01:17:28;2.05;;;0.70;;
44646;SDS011;56315;-33.902;151.160;2023-05-28T01:19:56;2.40;;;0.55;;
44646;SDS011;56315;-33.902;151.160;2023-05-28T01:22:30;3.45;;;0.68;;
44646;SDS011;56315;-33.902;151.160;2023-05-28T01:25:09;2.15;;;0.60;;
44646;SDS011;56315;-33.902;151.160;2023-05-28T01:27:41;1.77;;;0.70;;
44646;SDS011;56315;-33.902;151.160;2023-05-28T01:30:08;1.27;;;0.50;;
44646;SDS011;56315;-33.902;151.160;2023-05-28T01:32:37;0.57;;;0.40;;
44646;SDS011;56315;-33.902;151.160;2023-05-28T01:35:05;1.25;;;0.52;;
44646;SDS011;56315;-33.902;151.160;2023-05-28T01:37:36;4.10;;;0.88;;
44646;SDS011;56315;-33.902;151.160;2023-05-28T01:40:09;3.72;;;1.25;;
44646;SDS011;56315;-33.902;151.160;2023-05-28T01:42:37;2.85;;;0.80;;
44646;SDS011;56315;-33.902;151.160;2023-05-28T01:45:05;3.47;;;1.00;;
44646;SDS011;56315;-33.902;151.160;2023-05-28T01:47:35;1.80;;;0.63;;
44646;SDS011;56315;-33.902;151.160;2023-05-28T01:50:03;3.42;;;0.70;;
44646;SDS011;56315;-33.902;151.160;2023-05-28T01:52:31;1.30;;;0.60;;
44646;SDS011;56315;-33.902;151.160;2023-05-28T01:54:58;0.95;;;0.57;;
44646;SDS011;56315;-33.902;151.160;2023-05-28T01:57:25;1.67;;;0.70;;
44646;SDS011;56315;-33.902;151.160;2023-05-28T01:59:52;1.02;;;0.63;;
44646;SDS011;56315;-33.902;151.160;2023-05-28T02:02:20;3.38;;;0.60;;
44646;SDS011;56315;-33.902;151.160;2023-05-28T02:04:51;1.63;;;0.50;;
44646;SDS011;56315;-33.902;151.160;2023-05-28T02:07:19;1.80;;;0.70;;
44646;SDS011;56315;-33.902;151.160;2023-05-28T02:09:46;1.40;;;0.70;;
44646;SDS011;56315;-33.902;151.160;2023-05-28T02:12:13;0.98;;;0.35;;
44646;SDS011;56315;-33.902;151.160;2023-05-28T02:14:41;1.35;;;0.40;;
44646;SDS011;56315;-33.902;151.160;2023-05-28T02:17:09;0.60;;;0.30;;
44646;SDS011;56315;-33.902;151.160;2023-05-28T02:19:37;1.38;;;0.50;;
44646;SDS011;56315;-33.902;151.160;2023-05-28T02:22:05;1.45;;;0.50;;
44646;SDS011;56315;-33.902;151.160;2023-05-28T02:24:39;2.45;;;0.80;;
44646;SDS011;56315;-33.902;151.160;2023-05-28T02:27:07;2.60;;;2.20;;
44646;SDS011;56315;-33.902;151.160;2023-05-28T02:29:34;3.50;;;2.35;;
44646;SDS011;56315;-33.902;151.160;2023-05-28T02:32:02;3.20;;;1.75;;
44646;SDS011;56315;-33.902;151.160;2023-05-28T02:34:30;5.82;;;3.28;;
44646;SDS011;56315;-33.902;151.160;2023-05-28T02:36:57;5.80;;;2.47;;
44646;SDS011;56315;-33.902;151.160;2023-05-28T02:39:25;19.42;;;15.43;;
44646;SDS011;56315;-33.902;151.160;2023-05-28T02:41:52;8.15;;;5.45;;
44646;SDS011;56315;-33.902;151.160;2023-05-28T02:44:21;3.83;;;3.08;;
44646;SDS011;56315;-33.902;151.160;2023-05-28T02:46:48;5.43;;;3.63;;
44646;SDS011;56315;-33.902;151.160;2023-05-28T02:49:15;4.18;;;3.13;;
44646;SDS011;56315;-33.902;151.160;2023-05-28T02:51:43;5.20;;;3.35;;
44646;SDS011;56315;-33.902;151.160;2023-05-28T02:54:10;4.93;;;3.70;;
44646;SDS011;56315;-33.902;151.160;2023-05-28T02:56:37;3.42;;;2.75;;
44646;SDS011;56315;-33.902;151.160;2023-05-28T02:59:04;7.13;;;4.60;;
44646;SDS011;56315;-33.902;151.160;2023-05-28T03:01:32;39.35;;;3.30;;
44646;SDS011;56315;-33.902;151.160;2023-05-28T03:03:59;4.15;;;1.90;;
44646;SDS011;56315;-33.902;151.160;2023-05-28T03:06:26;1.17;;;0.60;;
44646;SDS011;56315;-33.902;151.160;2023-05-28T03:08:53;3.97;;;0.77;;
44646;SDS011;56315;-33.902;151.160;2023-05-28T03:11:21;2.80;;;0.50;;
44646;SDS011;56315;-33.902;151.160;2023-05-28T03:13:48;3.65;;;0.88;;
44646;SDS011;56315;-33.902;151.160;2023-05-28T03:16:15;2.17;;;0.73;;
44646;SDS011;56315;-33.902;151.160;2023-05-28T03:18:43;2.30;;;0.50;;
44646;SDS011;56315;-33.902;151.160;2023-05-28T03:21:10;1.27;;;0.45;;
44646;SDS011;56315;-33.902;151.160;2023-05-28T03:23:38;1.05;;;0.40;;
44646;SDS011;56315;-33.902;151.160;2023-05-28T03:26:05;0.63;;;0.30;;
44646;SDS011;56315;-33.902;151.160;2023-05-28T03:28:32;2.15;;;0.40;;
44646;SDS011;56315;-33.902;151.160;2023-05-28T03:31:00;0.82;;;0.30;;
44646;SDS011;56315;-33.902;151.160;2023-05-28T03:33:27;1.05;;;0.50;;
44646;SDS011;56315;-33.902;151.160;2023-05-28T03:35:54;1.45;;;0.32;;
44646;SDS011;56315;-33.902;151.160;2023-05-28T03:38:21;1.17;;;0.52;;
44646;SDS011;56315;-33.902;151.160;2023-05-28T03:40:48;3.95;;;0.95;;
44646;SDS011;56315;-33.902;151.160;2023-05-28T03:43:16;0.80;;;0.55;;
44646;SDS011;56315;-33.902;151.160;2023-05-28T03:45:43;1.38;;;0.55;;
44646;SDS011;56315;-33.902;151.160;2023-05-28T03:48:10;0.95;;;0.32;;
44646;SDS011;56315;-33.902;151.160;2023-05-28T03:50:37;1.58;;;0.57;;
44646;SDS011;56315;-33.902;151.160;2023-05-28T03:53:05;1.50;;;0.40;;
44646;SDS011;56315;-33.902;151.160;2023-05-28T03:55:35;0.82;;;0.30;;
44646;SDS011;56315;-33.902;151.160;2023-05-28T03:58:04;1.17;;;0.50;;
44646;SDS011;56315;-33.902;151.160;2023-05-28T04:00:31;2.40;;;0.55;;
44646;SDS011;56315;-33.902;151.160;2023-05-28T04:02:58;0.50;;;0.40;;
44646;SDS011;56315;-33.902;151.160;2023-05-28T04:05:28;1.98;;;0.52;;
44646;SDS011;56315;-33.902;151.160;2023-05-28T04:07:56;3.75;;;0.57;;
44646;SDS011;56315;-33.902;151.160;2023-05-28T04:10:23;7.95;;;0.60;;
44646;SDS011;56315;-33.902;151.160;2023-05-28T04:12:52;2.00;;;0.47;;
44646;SDS011;56315;-33.902;151.160;2023-05-28T04:15:20;1.67;;;0.30;;
44646;SDS011;56315;-33.902;151.160;2023-05-28T04:17:47;1.75;;;0.55;;
44646;SDS011;56315;-33.902;151.160;2023-05-28T04:20:15;7.15;;;0.60;;
44646;SDS011;56315;-33.902;151.160;2023-05-28T04:22:42;4.13;;;0.50;;
44646;SDS011;56315;-33.902;151.160;2023-05-28T04:25:09;1.23;;;0.30;;
44646;SDS011;56315;-33.902;151.160;2023-05-28T04:27:36;1.15;;;0.50;;
44646;SDS011;56315;-33.902;151.160;2023-05-28T04:30:07;2.05;;;0.40;;
44646;SDS011;56315;-33.902;151.160;2023-05-28T04:32:35;12.43;;;1.17;;
44646;SDS011;56315;-33.902;151.160;2023-05-28T04:35:07;1.25;;;0.30;;
44646;SDS011;56315;-33.902;151.160;2023-05-28T04:37:35;5.00;;;0.75;;
44646;SDS011;56315;-33.902;151.160;2023-05-28T04:40:08;10.68;;;1.20;;
44646;SDS011;56315;-33.902;151.160;2023-05-28T04:42:40;6.07;;;1.00;;
44646;SDS011;56315;-33.902;151.160;2023-05-28T04:45:08;2.45;;;0.38;;
44646;SDS011;56315;-33.902;151.160;2023-05-28T04:47:36;5.40;;;0.20;;
44646;SDS011;56315;-33.902;151.160;2023-05-28T04:50:04;6.05;;;2.63;;
44646;SDS011;56315;-33.902;151.160;2023-05-28T04:52:32;7.68;;;0.93;;
44646;SDS011;56315;-33.902;151.160;2023-05-28T04:55:01;11.23;;;6.85;;
44646;SDS011;56315;-33.902;151.160;2023-05-28T04:57:33;2.83;;;2.10;;
44646;SDS011;56315;-33.902;151.160;2023-05-28T05:00:00;2.30;;;0.85;;
44646;SDS011;56315;-33.902;151.160;2023-05-28T05:02:28;1.77;;;1.67;;
44646;SDS011;56315;-33.902;151.160;2023-05-28T05:04:56;4.80;;;2.90;;
44646;SDS011;56315;-33.902;151.160;2023-05-28T05:07:23;2.40;;;1.73;;
44646;SDS011;56315;-33.902;151.160;2023-05-28T05:09:50;1.63;;;1.13;;
44646;SDS011;56315;-33.902;151.160;2023-05-28T05:12:17;0.73;;;0.30;;
44646;SDS011;56315;-33.902;151.160;2023-05-28T05:14:45;2.53;;;0.40;;
44646;SDS011;56315;-33.902;151.160;2023-05-28T05:17:12;1.27;;;0.32;;
44646;SDS011;56315;-33.902;151.160;2023-05-28T05:19:39;14.20;;;1.23;;
44646;SDS011;56315;-33.902;151.160;2023-05-28T05:22:06;0.75;;;0.43;;
44646;SDS011;56315;-33.902;151.160;2023-05-28T05:24:34;42.05;;;2.95;;
44646;SDS011;56315;-33.902;151.160;2023-05-28T05:27:01;0.93;;;0.40;;
44646;SDS011;56315;-33.902;151.160;2023-05-28T05:29:28;4.18;;;0.20;;
44646;SDS011;56315;-33.902;151.160;2023-05-28T05:31:55;6.90;;;0.60;;
44646;SDS011;56315;-33.902;151.160;2023-05-28T05:34:23;7.10;;;0.88;;
44646;SDS011;56315;-33.902;151.160;2023-05-28T05:36:50;3.15;;;1.60;;
44646;SDS011;56315;-33.902;151.160;2023-05-28T05:39:17;6.28;;;2.08;;
44646;SDS011;56315;-33.902;151.160;2023-05-28T05:41:44;7.50;;;3.75;;
44646;SDS011;56315;-33.902;151.160;2023-05-28T05:44:12;3.90;;;3.40;;
44646;SDS011;56315;-33.902;151.160;2023-05-28T05:46:39;4.38;;;2.67;;
44646;SDS011;56315;-33.902;151.160;2023-05-28T05:49:06;7.72;;;4.38;;
44646;SDS011;56315;-33.902;151.160;2023-05-28T05:51:35;4.03;;;1.90;;
44646;SDS011;56315;-33.902;151.160;2023-05-28T05:54:02;4.13;;;2.10;;
44646;SDS011;56315;-33.902;151.160;2023-05-28T05:56:30;2.17;;;1.48;;
44646;SDS011;56315;-33.902;151.160;2023-05-28T05:58:58;3.28;;;1.17;;
44646;SDS011;56315;-33.902;151.160;2023-05-28T06:01:26;3.08;;;1.60;;
44646;SDS011;56315;-33.902;151.160;2023-05-28T06:03:55;4.65;;;1.67;;
44646;SDS011;56315;-33.902;151.160;2023-05-28T06:06:23;2.92;;;1.20;;
44646;SDS011;56315;-33.902;151.160;2023-05-28T06:08:52;2.13;;;1.10;;
44646;SDS011;56315;-33.902;151.160;2023-05-28T06:11:20;2.53;;;1.02;;
44646;SDS011;56315;-33.902;151.160;2023-05-28T06:13:51;1.40;;;1.05;;
44646;SDS011;56315;-33.902;151.160;2023-05-28T06:16:18;2.78;;;1.05;;
44646;SDS011;56315;-33.902;151.160;2023-05-28T06:18:45;3.95;;;1.20;;
44646;SDS011;56315;-33.902;151.160;2023-05-28T06:21:12;2.17;;;1.10;;
44646;SDS011;56315;-33.902;151.160;2023-05-28T06:23:40;2.42;;;1.52;;
44646;SDS011;56315;-33.902;151.160;2023-05-28T06:26:07;4.63;;;1.42;;
44646;SDS011;56315;-33.902;151.160;2023-05-28T06:28:34;2.88;;;1.33;;
44646;SDS011;56315;-33.902;151.160;2023-05-28T06:31:02;2.45;;;1.50;;
44646;SDS011;56315;-33.902;151.160;2023-05-28T06:33:29;5.63;;;1.90;;
44646;SDS011;56315;-33.902;151.160;2023-05-28T06:35:56;2.97;;;1.55;;
44646;SDS011;56315;-33.902;151.160;2023-05-28T06:38:23;22.02;;;19.05;;
44646;SDS011;56315;-33.902;151.160;2023-05-28T06:40:50;36.50;;;20.38;;
44646;SDS011;56315;-33.902;151.160;2023-05-28T06:43:17;6.13;;;3.45;;
44646;SDS011;56315;-33.902;151.160;2023-05-28T06:45:45;8.20;;;3.33;;
44646;SDS011;56315;-33.902;151.160;2023-05-28T06:48:12;2.50;;;2.08;;
44646;SDS011;56315;-33.902;151.160;2023-05-28T06:50:39;3.95;;;2.60;;
44646;SDS011;56315;-33.902;151.160;2023-05-28T06:53:06;9.73;;;2.40;;
44646;SDS011;56315;-33.902;151.160;2023-05-28T06:55:34;3.92;;;1.70;;
44646;SDS011;56315;-33.902;151.160;2023-05-28T06:58:01;2.63;;;1.30;;
44646;SDS011;56315;-33.902;151.160;2023-05-28T07:00:28;2.50;;;1.40;;
44646;SDS011;56315;-33.902;151.160;2023-05-28T07:02:55;2.00;;;0.93;;
44646;SDS011;56315;-33.902;151.160;2023-05-28T07:05:23;1.85;;;0.70;;
44646;SDS011;56315;-33.902;151.160;2023-05-28T07:07:50;5.75;;;1.10;;
44646;SDS011;56315;-33.902;151.160;2023-05-28T07:10:17;1.90;;;1.30;;
44646;SDS011;56315;-33.902;151.160;2023-05-28T07:12:44;3.30;;;1.60;;
44646;SDS011;56315;-33.902;151.160;2023-05-28T07:15:11;7.00;;;1.40;;
44646;SDS011;56315;-33.902;151.160;2023-05-28T07:17:41;6.22;;;1.30;;
44646;SDS011;56315;-33.902;151.160;2023-05-28T07:20:08;2.60;;;1.75;;
44646;SDS011;56315;-33.902;151.160;2023-05-28T07:22:36;3.00;;;1.88;;
44646;SDS011;56315;-33.902;151.160;2023-05-28T07:25:04;5.97;;;2.03;;
44646;SDS011;56315;-33.902;151.160;2023-05-28T07:27:32;2.35;;;1.40;;
44646;SDS011;56315;-33.902;151.160;2023-05-28T07:29:59;2.58;;;1.48;;
44646;SDS011;56315;-33.902;151.160;2023-05-28T07:32:27;5.65;;;1.92;;
44646;SDS011;56315;-33.902;151.160;2023-05-28T07:34:54;1.67;;;1.05;;
44646;SDS011;56315;-33.902;151.160;2023-05-28T07:37:21;2.22;;;1.25;;
44646;SDS011;56315;-33.902;151.160;2023-05-28T07:39:48;2.33;;;1.20;;
44646;SDS011;56315;-33.902;151.160;2023-05-28T07:42:15;3.33;;;1.85;;
44646;SDS011;56315;-33.902;151.160;2023-05-28T07:44:43;6.97;;;3.70;;
44646;SDS011;56315;-33.902;151.160;2023-05-28T07:47:10;8.15;;;5.30;;
44646;SDS011;56315;-33.902;151.160;2023-05-28T07:49:38;5.00;;;3.30;;
44646;SDS011;56315;-33.902;151.160;2023-05-28T07:52:05;6.47;;;3.10;;
44646;SDS011;56315;-33.902;151.160;2023-05-28T07:54:33;4.13;;;2.70;;
44646;SDS011;56315;-33.902;151.160;2023-05-28T07:57:00;4.80;;;2.42;;
44646;SDS011;56315;-33.902;151.160;2023-05-28T07:59:27;4.63;;;2.60;;
44646;SDS011;56315;-33.902;151.160;2023-05-28T08:01:55;4.85;;;2.90;;
44646;SDS011;56315;-33.902;151.160;2023-05-28T08:04:23;6.60;;;2.67;;
44646;SDS011;56315;-33.902;151.160;2023-05-28T08:06:50;3.65;;;2.20;;
44646;SDS011;56315;-33.902;151.160;2023-05-28T08:09:17;4.05;;;2.72;;
44646;SDS011;56315;-33.902;151.160;2023-05-28T08:11:45;4.90;;;3.20;;
44646;SDS011;56315;-33.902;151.160;2023-05-28T08:14:12;7.55;;;3.83;;
44646;SDS011;56315;-33.902;151.160;2023-05-28T08:16:39;4.70;;;3.85;;
44646;SDS011;56315;-33.902;151.160;2023-05-28T08:19:06;6.18;;;3.30;;
44646;SDS011;56315;-33.902;151.160;2023-05-28T08:21:34;9.07;;;5.95;;
44646;SDS011;56315;-33.902;151.160;2023-05-28T08:24:01;19.77;;;14.18;;
44646;SDS011;56315;-33.902;151.160;2023-05-28T08:26:28;18.98;;;12.88;;
44646;SDS011;56315;-33.902;151.160;2023-05-28T08:28:56;13.52;;;9.38;;
44646;SDS011;56315;-33.902;151.160;2023-05-28T08:31:23;13.75;;;9.35;;
44646;SDS011;56315;-33.902;151.160;2023-05-28T08:33:51;16.25;;;10.40;;
44646;SDS011;56315;-33.902;151.160;2023-05-28T08:36:18;24.92;;;15.85;;
44646;SDS011;56315;-33.902;151.160;2023-05-28T08:38:45;23.15;;;16.33;;
44646;SDS011;56315;-33.902;151.160;2023-05-28T08:41:13;23.73;;;16.98;;
44646;SDS011;56315;-33.902;151.160;2023-05-28T08:43:40;26.73;;;18.38;;
44646;SDS011;56315;-33.902;151.160;2023-05-28T08:46:08;41.22;;;28.80;;
44646;SDS011;56315;-33.902;151.160;2023-05-28T08:48:35;31.60;;;23.38;;
44646;SDS011;56315;-33.902;151.160;2023-05-28T08:51:06;25.05;;;17.30;;
44646;SDS011;56315;-33.902;151.160;2023-05-28T08:53:40;19.27;;;13.48;;
44646;SDS011;56315;-33.902;151.160;2023-05-28T08:56:12;14.00;;;8.93;;
44646;SDS011;56315;-33.902;151.160;2023-05-28T08:58:40;10.23;;;6.25;;
44646;SDS011;56315;-33.902;151.160;2023-05-28T09:01:08;10.27;;;6.55;;
44646;SDS011;56315;-33.902;151.160;2023-05-28T09:03:37;10.38;;;6.65;;
44646;SDS011;56315;-33.902;151.160;2023-05-28T09:06:06;8.93;;;6.30;;
44646;SDS011;56315;-33.902;151.160;2023-05-28T09:08:34;8.85;;;6.40;;
44646;SDS011;56315;-33.902;151.160;2023-05-28T09:11:09;9.07;;;6.00;;
44646;SDS011;56315;-33.902;151.160;2023-05-28T09:13:44;8.52;;;5.90;;
44646;SDS011;56315;-33.902;151.160;2023-05-28T09:16:20;8.60;;;5.50;;
44646;SDS011;56315;-33.902;151.160;2023-05-28T09:18:51;10.45;;;5.78;;
44646;SDS011;56315;-33.902;151.160;2023-05-28T09:21:30;7.78;;;5.13;;
44646;SDS011;56315;-33.902;151.160;2023-05-28T09:24:01;7.85;;;4.93;;
44646;SDS011;56315;-33.902;151.160;2023-05-28T09:26:32;6.03;;;4.73;;
44646;SDS011;56315;-33.902;151.160;2023-05-28T09:28:59;7.45;;;5.28;;
44646;SDS011;56315;-33.902;151.160;2023-05-28T09:31:28;10.70;;;6.28;;
44646;SDS011;56315;-33.902;151.160;2023-05-28T09:33:59;8.55;;;5.80;;
44646;SDS011;56315;-33.902;151.160;2023-05-28T09:36:30;10.63;;;6.43;;
44646;SDS011;56315;-33.902;151.160;2023-05-28T09:38:57;9.77;;;6.38;;
44646;SDS011;56315;-33.902;151.160;2023-05-28T09:41:25;12.93;;;7.00;;
44646;SDS011;56315;-33.902;151.160;2023-05-28T09:44:00;8.52;;;6.25;;
44646;SDS011;56315;-33.902;151.160;2023-05-28T09:46:33;7.93;;;6.20;;
44646;SDS011;56315;-33.902;151.160;2023-05-28T09:49:01;9.35;;;6.43;;
44646;SDS011;56315;-33.902;151.160;2023-05-28T09:51:30;8.93;;;6.18;;
44646;SDS011;56315;-33.902;151.160;2023-05-28T09:53:59;11.63;;;6.70;;
44646;SDS011;56315;-33.902;151.160;2023-05-28T09:56:29;10.63;;;6.38;;
44646;SDS011;56315;-33.902;151.160;2023-05-28T09:58:59;10.15;;;7.35;;
44646;SDS011;56315;-33.902;151.160;2023-05-28T10:01:31;10.95;;;7.00;;
44646;SDS011;56315;-33.902;151.160;2023-05-28T10:04:12;12.52;;;6.72;;
44646;SDS011;56315;-33.902;151.160;2023-05-28T10:06:43;10.00;;;6.65;;
44646;SDS011;56315;-33.902;151.160;2023-05-28T10:09:12;10.35;;;6.60;;
44646;SDS011;56315;-33.902;151.160;2023-05-28T10:11:48;9.35;;;5.95;;
44646;SDS011;56315;-33.902;151.160;2023-05-28T10:14:26;11.60;;;7.15;;
44646;SDS011;56315;-33.902;151.160;2023-05-28T10:16:55;9.82;;;6.90;;
44646;SDS011;56315;-33.902;151.160;2023-05-28T10:19:22;10.18;;;7.03;;
44646;SDS011;56315;-33.902;151.160;2023-05-28T10:21:51;11.80;;;6.63;;
44646;SDS011;56315;-33.902;151.160;2023-05-28T10:24:19;11.27;;;8.05;;
44646;SDS011;56315;-33.902;151.160;2023-05-28T10:26:46;9.45;;;7.72;;
44646;SDS011;56315;-33.902;151.160;2023-05-28T10:29:14;10.52;;;7.93;;
44646;SDS011;56315;-33.902;151.160;2023-05-28T10:31:41;10.57;;;7.20;;
44646;SDS011;56315;-33.902;151.160;2023-05-28T10:34:17;12.02;;;7.47;;
44646;SDS011;56315;-33.902;151.160;2023-05-28T10:36:53;9.00;;;6.95;;
44646;SDS011;56315;-33.902;151.160;2023-05-28T10:39:20;10.98;;;7.03;;
44646;SDS011;56315;-33.902;151.160;2023-05-28T10:41:48;9.23;;;6.80;;
44646;SDS011;56315;-33.902;151.160;2023-05-28T10:44:17;10.13;;;6.72;;
44646;SDS011;56315;-33.902;151.160;2023-05-28T10:46:44;9.27;;;6.75;;
44646;SDS011;56315;-33.902;151.160;2023-05-28T10:49:12;11.85;;;8.30;;
44646;SDS011;56315;-33.902;151.160;2023-05-28T10:59:52;16.17;;;10.10;;
44646;SDS011;56315;-33.902;151.160;2023-05-28T11:02:32;11.40;;;8.48;;
44646;SDS011;56315;-33.902;151.160;2023-05-28T11:05:01;11.88;;;9.40;;
44646;SDS011;56315;-33.902;151.160;2023-05-28T11:07:34;14.57;;;9.55;;
44646;SDS011;56315;-33.902;151.160;2023-05-28T11:10:03;12.18;;;9.27;;
44646;SDS011;56315;-33.902;151.160;2023-05-28T11:12:36;12.10;;;8.30;;
44646;SDS011;56315;-33.902;151.160;2023-05-28T11:15:07;12.43;;;7.82;;
44646;SDS011;56315;-33.902;151.160;2023-05-28T11:17:36;9.73;;;6.95;;
44646;SDS011;56315;-33.902;151.160;2023-05-28T11:20:05;8.35;;;5.95;;
44646;SDS011;56315;-33.902;151.160;2023-05-28T11:22:50;8.90;;;6.45;;
44646;SDS011;56315;-33.902;151.160;2023-05-28T11:25:18;8.23;;;5.72;;
44646;SDS011;56315;-33.902;151.160;2023-05-28T11:27:51;7.28;;;5.18;;
44646;SDS011;56315;-33.902;151.160;2023-05-28T11:30:19;8.40;;;5.32;;
44646;SDS011;56315;-33.902;151.160;2023-05-28T11:32:47;6.00;;;4.80;;
44646;SDS011;56315;-33.902;151.160;2023-05-28T11:35:16;6.32;;;4.90;;
44646;SDS011;56315;-33.902;151.160;2023-05-28T11:37:43;7.50;;;4.85;;
44646;SDS011;56315;-33.902;151.160;2023-05-28T11:40:12;4.53;;;3.72;;
44646;SDS011;56315;-33.902;151.160;2023-05-28T11:42:42;8.75;;;5.03;;
44646;SDS011;56315;-33.902;151.160;2023-05-28T11:45:10;8.88;;;5.07;;
44646;SDS011;56315;-33.902;151.160;2023-05-28T11:47:38;6.78;;;5.15;;
44646;SDS011;56315;-33.902;151.160;2023-05-28T11:50:08;6.03;;;4.78;;
44646;SDS011;56315;-33.902;151.160;2023-05-28T11:52:37;7.15;;;5.13;;
44646;SDS011;56315;-33.902;151.160;2023-05-28T11:55:04;6.63;;;5.70;;
44646;SDS011;56315;-33.902;151.160;2023-05-28T11:57:32;6.85;;;5.85;;
44646;SDS011;56315;-33.902;151.160;2023-05-28T12:02:46;7.38;;;6.05;;
44646;SDS011;56315;-33.902;151.160;2023-05-28T12:05:16;8.63;;;6.03;;
44646;SDS011;56315;-33.902;151.160;2023-05-28T12:07:47;8.50;;;6.65;;
44646;SDS011;56315;-33.902;151.160;2023-05-28T12:10:16;7.43;;;5.85;;
44646;SDS011;56315;-33.902;151.160;2023-05-28T12:12:46;9.52;;;6.05;;
44646;SDS011;56315;-33.902;151.160;2023-05-28T12:15:20;7.70;;;5.55;;
44646;SDS011;56315;-33.902;151.160;2023-05-28T12:17:54;7.03;;;5.13;;
44646;SDS011;56315;-33.902;151.160;2023-05-28T12:20:32;8.82;;;5.43;;
44646;SDS011;56315;-33.902;151.160;2023-05-28T12:23:09;6.65;;;5.47;;
44646;SDS011;56315;-33.902;151.160;2023-05-28T12:28:11;9.52;;;6.10;;
44646;SDS011;56315;-33.902;151.160;2023-05-28T12:30:41;8.52;;;6.22;;
44646;SDS011;56315;-33.902;151.160;2023-05-28T12:33:10;7.53;;;5.30;;
44646;SDS011;56315;-33.902;151.160;2023-05-28T12:35:37;9.05;;;5.50;;
44646;SDS011;56315;-33.902;151.160;2023-05-28T12:38:06;6.05;;;3.72;;
44646;SDS011;56315;-33.902;151.160;2023-05-28T12:40:33;5.47;;;4.00;;
44646;SDS011;56315;-33.902;151.160;2023-05-28T12:43:00;5.50;;;3.42;;
44646;SDS011;56315;-33.902;151.160;2023-05-28T12:45:28;5.93;;;3.65;;
44646;SDS011;56315;-33.902;151.160;2023-05-28T12:47:55;5.22;;;3.63;;
44646;SDS011;56315;-33.902;151.160;2023-05-28T12:50:22;5.60;;;3.42;;
44646;SDS011;56315;-33.902;151.160;2023-05-28T12:52:50;3.28;;;2.97;;
44646;SDS011;56315;-33.902;151.160;2023-05-28T12:55:17;5.65;;;3.40;;
44646;SDS011;56315;-33.902;151.160;2023-05-28T12:57:46;4.25;;;2.92;;
44646;SDS011;56315;-33.902;151.160;2023-05-28T13:00:13;4.60;;;2.50;;
44646;SDS011;56315;-33.902;151.160;2023-05-28T13:02:41;4.30;;;3.20;;
44646;SDS011;56315;-33.902;151.160;2023-05-28T13:05:08;4.00;;;2.63;;
44646;SDS011;56315;-33.902;151.160;2023-05-28T13:07:36;4.15;;;3.00;;
44646;SDS011;56315;-33.902;151.160;2023-05-28T13:10:03;4.93;;;2.92;;
44646;SDS011;56315;-33.902;151.160;2023-05-28T13:12:33;4.15;;;3.13;;
44646;SDS011;56315;-33.902;151.160;2023-05-28T13:15:03;5.22;;;3.28;;
44646;SDS011;56315;-33.902;151.160;2023-05-28T13:17:31;5.78;;;3.22;;
44646;SDS011;56315;-33.902;151.160;2023-05-28T13:19:59;6.75;;;3.35;;
44646;SDS011;56315;-33.902;151.160;2023-05-28T13:22:31;5.00;;;3.22;;
44646;SDS011;56315;-33.902;151.160;2023-05-28T13:25:01;3.33;;;3.00;;
44646;SDS011;56315;-33.902;151.160;2023-05-28T13:27:31;5.57;;;3.92;;
44646;SDS011;56315;-33.902;151.160;2023-05-28T13:29:59;4.82;;;3.83;;
44646;SDS011;56315;-33.902;151.160;2023-05-28T13:32:27;5.38;;;3.92;;
44646;SDS011;56315;-33.902;151.160;2023-05-28T13:34:55;4.88;;;3.72;;
44646;SDS011;56315;-33.902;151.160;2023-05-28T13:37:22;4.75;;;3.92;;
44646;SDS011;56315;-33.902;151.160;2023-05-28T13:39:49;5.90;;;3.15;;
44646;SDS011;56315;-33.902;151.160;2023-05-28T13:42:16;5.55;;;3.80;;
44646;SDS011;56315;-33.902;151.160;2023-05-28T13:44:48;4.95;;;4.15;;
44646;SDS011;56315;-33.902;151.160;2023-05-28T13:47:16;5.07;;;3.72;;
44646;SDS011;56315;-33.902;151.160;2023-05-28T13:49:43;4.95;;;3.83;;
44646;SDS011;56315;-33.902;151.160;2023-05-28T13:52:10;6.05;;;3.75;;
44646;SDS011;56315;-33.902;151.160;2023-05-28T13:54:38;5.53;;;3.95;;
44646;SDS011;56315;-33.902;151.160;2023-05-28T13:57:07;5.35;;;4.10;;
44646;SDS011;56315;-33.902;151.160;2023-05-28T13:59:34;4.85;;;3.45;;
44646;SDS011;56315;-33.902;151.160;2023-05-28T14:02:01;5.25;;;4.00;;
44646;SDS011;56315;-33.902;151.160;2023-05-28T14:04:29;4.28;;;3.30;;
44646;SDS011;56315;-33.902;151.160;2023-05-28T14:06:56;5.97;;;3.33;;
44646;SDS011;56315;-33.902;151.160;2023-05-28T14:09:23;4.65;;;3.08;;
44646;SDS011;56315;-33.902;151.160;2023-05-28T14:11:51;3.92;;;2.92;;
44646;SDS011;56315;-33.902;151.160;2023-05-28T14:14:18;4.57;;;3.05;;
44646;SDS011;56315;-33.902;151.160;2023-05-28T14:16:45;4.30;;;2.90;;
44646;SDS011;56315;-33.902;151.160;2023-05-28T14:19:12;4.40;;;3.10;;
44646;SDS011;56315;-33.902;151.160;2023-05-28T14:21:40;4.35;;;3.55;;
44646;SDS011;56315;-33.902;151.160;2023-05-28T14:24:08;5.22;;;3.13;;
44646;SDS011;56315;-33.902;151.160;2023-05-28T14:26:35;5.50;;;3.25;;